createdAt,value
2022-11-15T00:02:41.989Z,92.56
2022-11-15T00:05:29.568Z,92.80
2022-11-15T00:08:17.799Z,92.83
2022-11-15T00:11:05.502Z,92.82
2022-11-15T00:13:52.238Z,92.53
2022-11-15T00:16:38.970Z,92.40
2022-11-15T00:19:25.936Z,92.34
2022-11-15T00:22:12.847Z,92.50
2022-11-15T00:25:00.818Z,92.39
2022-11-15T00:27:47.336Z,92.42
2022-11-15T00:30:33.826Z,92.54
2022-11-15T00:33:20.478Z,92.89
2022-11-15T00:36:10.143Z,93.03
2022-11-15T00:38:57.067Z,92.96
2022-11-15T00:41:45.073Z,92.82
2022-11-15T00:44:31.700Z,93.01
2022-11-15T00:47:18.472Z,93.27
2022-11-15T00:50:05.735Z,93.36
2022-11-15T00:52:52.500Z,93.31
2022-11-15T00:55:39.471Z,92.89
2022-11-15T00:58:27.859Z,92.89
2022-11-15T01:01:16.511Z,92.11
2022-11-15T01:04:03.081Z,92.20
2022-11-15T01:06:49.966Z,92.69
2022-11-15T01:09:37.020Z,92.82
2022-11-15T01:12:23.510Z,93.11
2022-11-15T01:15:12.413Z,93.25
2022-11-15T01:17:58.931Z,93.46
2022-11-15T01:20:45.709Z,93.52
2022-11-15T01:23:32.722Z,93.81
2022-11-15T01:26:19.674Z,93.90
2022-11-15T01:29:06.431Z,93.74
2022-11-15T01:31:55.317Z,93.70
2022-11-15T01:34:41.945Z,93.62
2022-11-15T01:37:28.453Z,93.70
2022-11-15T01:40:15.423Z,93.90
2022-11-15T01:43:20.719Z,93.65
2022-11-15T01:46:23.820Z,93.91
2022-11-15T01:49:16.860Z,93.95
2022-11-15T01:52:05.943Z,93.95
2022-11-15T01:54:57.471Z,93.84
2022-11-15T01:57:47.413Z,93.81
2022-11-15T02:00:34.338Z,94.08
2022-11-15T02:03:24.109Z,94.24
2022-11-15T02:06:12.446Z,94.41
2022-11-15T02:08:59.482Z,94.27
2022-11-15T02:11:47.332Z,94.36
2022-11-15T02:14:35.472Z,93.18
2022-11-15T02:17:44.623Z,92.49
2022-11-15T02:20:52.198Z,91.60
2022-11-15T02:24:09.581Z,91.53
2022-11-15T02:27:43.872Z,92.34
2022-11-15T02:30:43.957Z,92.67
2022-11-15T02:33:39.664Z,93.07
2022-11-15T02:36:36.872Z,93.43
2022-11-15T02:39:30.892Z,93.74
2022-11-15T02:42:40.312Z,93.67
2022-11-15T02:45:31.280Z,93.38
2022-11-15T02:48:20.833Z,93.65
2022-11-15T02:51:08.574Z,93.63
2022-11-15T02:53:54.998Z,93.57
2022-11-15T02:56:42.482Z,92.58
2022-11-15T02:59:53.895Z,91.54
2022-11-15T03:03:07.791Z,91.38
2022-11-15T03:06:01.746Z,92.04
2022-11-15T03:08:58.643Z,92.55
2022-11-15T03:11:52.801Z,93.43
2022-11-15T03:14:46.396Z,92.71
2022-11-15T03:17:38.429Z,92.61
2022-11-15T03:20:28.194Z,91.52
2022-11-15T03:23:16.454Z,90.75
2022-11-15T03:26:03.820Z,90.62
2022-11-15T03:28:54.861Z,90.54
2022-11-15T03:31:50.939Z,91.47
2022-11-15T03:34:43.802Z,92.13
2022-11-15T03:37:36.302Z,92.48
2022-11-15T03:40:29.897Z,92.92
2022-11-15T03:43:26.068Z,92.95
2022-11-15T03:46:16.651Z,93.41
2022-11-15T03:49:11.488Z,93.46
2022-11-15T03:51:59.317Z,93.36
2022-11-15T03:54:51.396Z,93.66
2022-11-15T03:57:40.024Z,93.47
2022-11-15T04:00:27.173Z,93.52
2022-11-15T04:03:14.093Z,93.64
2022-11-15T04:06:00.971Z,93.74
2022-11-15T04:08:47.373Z,93.85
2022-11-15T04:11:33.957Z,93.77
2022-11-15T04:14:21.807Z,93.68
2022-11-15T04:17:08.961Z,93.67
2022-11-15T04:20:13.055Z,93.87
2022-11-15T04:23:18.411Z,93.77
2022-11-15T04:26:08.163Z,93.77
2022-11-15T04:29:17.468Z,93.62
2022-11-15T04:32:07.185Z,93.52
2022-11-15T04:34:53.645Z,93.49
2022-11-15T04:37:43.882Z,93.64
2022-11-15T04:40:33.776Z,93.19
2022-11-15T04:43:20.480Z,93.56
2022-11-15T04:46:07.184Z,93.45
2022-11-15T04:48:58.865Z,93.41
2022-11-15T04:51:46.607Z,93.75
2022-11-15T04:54:33.296Z,93.62
2022-11-15T04:57:20.057Z,93.84
2022-11-15T05:00:10.064Z,93.80
2022-11-15T05:03:14.533Z,93.74
2022-11-15T05:06:03.070Z,93.95
2022-11-15T05:08:49.816Z,93.79
2022-11-15T05:11:36.658Z,93.81
2022-11-15T05:14:23.650Z,93.80
2022-11-15T05:17:10.546Z,93.80
2022-11-15T05:19:57.344Z,93.35
2022-11-15T05:22:45.189Z,93.35
2022-11-15T05:25:31.965Z,93.33
2022-11-15T05:28:18.889Z,93.64
2022-11-15T05:31:06.824Z,93.93
2022-11-15T05:33:54.136Z,93.63
2022-11-15T05:36:44.280Z,93.74
2022-11-15T05:39:33.060Z,93.80
2022-11-15T05:42:20.671Z,93.73
2022-11-15T05:45:10.586Z,93.94
2022-11-15T05:48:00.889Z,93.80
2022-11-15T05:50:49.199Z,94.03
2022-11-15T05:53:38.509Z,93.50
2022-11-15T05:56:27.168Z,94.08
2022-11-15T05:59:14.715Z,94.31
2022-11-15T06:02:01.231Z,93.45
2022-11-15T06:04:48.000Z,92.53
2022-11-15T06:07:34.848Z,92.52
2022-11-15T06:10:21.836Z,92.41
2022-11-15T06:13:09.909Z,92.82
2022-11-15T06:15:58.314Z,93.08
2022-11-15T06:18:44.975Z,92.89
2022-11-15T06:21:31.715Z,92.91
2022-11-15T06:24:18.657Z,93.18
2022-11-15T06:27:05.597Z,92.99
2022-11-15T06:29:53.506Z,93.32
2022-11-15T06:32:40.252Z,93.40
2022-11-15T06:35:27.052Z,93.30
2022-11-15T06:38:13.879Z,93.32
2022-11-15T06:41:04.581Z,93.29
2022-11-15T06:43:51.431Z,93.42
2022-11-15T06:46:39.553Z,93.38
2022-11-15T06:49:26.029Z,93.34
2022-11-15T06:52:12.856Z,93.48
2022-11-15T06:54:59.513Z,93.34
2022-11-15T06:57:50.298Z,93.35
2022-11-15T07:00:38.559Z,93.18
2022-11-15T07:03:26.684Z,93.36
2022-11-15T07:06:13.347Z,93.05
2022-11-15T07:09:00.162Z,93.08
2022-11-15T07:11:46.796Z,92.64
2022-11-15T07:14:33.527Z,92.52
2022-11-15T07:17:20.039Z,92.79
2022-11-15T07:20:09.165Z,92.96
2022-11-15T07:23:02.938Z,92.93
2022-11-15T07:25:50.354Z,93.01
2022-11-15T07:28:37.244Z,92.57
2022-11-15T07:31:25.592Z,92.95
2022-11-15T07:34:14.403Z,92.93
2022-11-15T07:37:02.415Z,92.33
2022-11-15T07:39:49.355Z,91.76
2022-11-15T07:42:53.570Z,91.57
2022-11-15T07:45:43.769Z,88.93
2022-11-15T07:48:42.979Z,87.97
2022-11-15T07:51:31.399Z,89.83
2022-11-15T07:54:19.703Z,89.71
2022-11-15T07:57:08.134Z,89.93
2022-11-15T07:59:55.051Z,90.80
2022-11-15T08:02:42.259Z,89.98
2022-11-15T08:05:29.024Z,88.44
2022-11-15T08:08:15.588Z,88.05
2022-11-15T08:11:04.186Z,88.45
2022-11-15T08:13:50.979Z,87.77
2022-11-15T08:16:37.949Z,88.05
2022-11-15T08:19:25.099Z,87.94
2022-11-15T08:22:11.893Z,85.14
2022-11-15T08:24:58.405Z,86.09
2022-11-15T08:27:46.843Z,86.03
2022-11-15T08:30:37.842Z,86.17
2022-11-15T08:33:24.814Z,83.29
2022-11-15T08:36:15.590Z,84.20
2022-11-15T08:39:01.973Z,83.25
2022-11-15T08:41:48.599Z,83.46
2022-11-15T08:44:36.780Z,81.26
2022-11-15T08:47:23.914Z,79.31
2022-11-15T08:50:11.257Z,81.27
2022-11-15T08:52:57.691Z,78.45
2022-11-15T08:55:44.544Z,77.57
2022-11-15T08:58:31.477Z,77.22
2022-11-15T09:01:22.228Z,76.06
2022-11-15T09:04:09.284Z,74.49
2022-11-15T09:06:56.112Z,71.17
2022-11-15T09:09:43.063Z,71.84
2022-11-15T09:12:29.988Z,71.99
2022-11-15T09:15:18.937Z,72.18
2022-11-15T09:18:10.659Z,74.16
2022-11-15T09:20:58.867Z,74.60
2022-11-15T09:23:45.427Z,74.87
2022-11-15T09:26:33.373Z,75.25
2022-11-15T09:29:20.450Z,75.29
2022-11-15T09:32:07.540Z,73.64
2022-11-15T09:34:55.735Z,73.38
2022-11-15T09:37:42.910Z,73.29
2022-11-15T09:40:30.055Z,71.43
2022-11-15T09:43:31.198Z,73.01
2022-11-15T09:46:26.733Z,72.68
2022-11-15T09:49:17.159Z,72.07
2022-11-15T09:51:59.304Z,71.93
2022-11-15T09:57:26.983Z,71.12
2022-11-15T10:00:30.999Z,71.04
2022-11-15T10:03:12.422Z,70.73
2022-11-15T10:05:43.268Z,70.23
2022-11-15T10:08:33.672Z,69.06
2022-11-15T10:11:35.632Z,69.38
2022-11-15T10:13:54.771Z,67.63
2022-11-15T10:16:45.684Z,67.69
2022-11-15T10:19:21.214Z,67.07
2022-11-15T10:22:02.457Z,66.62
2022-11-15T10:24:42.057Z,67.26
2022-11-15T10:27:14.200Z,67.40
2022-11-15T10:29:46.209Z,66.98
2022-11-15T10:32:16.192Z,66.42
2022-11-15T10:34:44.293Z,66.68
2022-11-15T10:37:12.721Z,65.85
2022-11-15T10:39:42.200Z,64.98
2022-11-15T10:42:28.015Z,63.86
2022-11-15T10:44:56.925Z,63.06
2022-11-15T10:47:28.247Z,62.37
2022-11-15T10:50:01.831Z,62.07
2022-11-15T10:52:31.892Z,62.76
2022-11-15T10:55:06.948Z,63.86
2022-11-15T10:57:39.555Z,63.04
2022-11-15T11:00:28.250Z,63.34
2022-11-15T11:03:01.084Z,63.08
2022-11-15T11:05:36.559Z,62.02
2022-11-15T11:08:23.463Z,62.48
2022-11-15T11:11:01.858Z,63.22
2022-11-15T11:13:33.664Z,63.67
2022-11-15T11:16:19.483Z,62.91
2022-11-15T11:18:56.921Z,61.98
2022-11-15T11:21:38.384Z,62.44
2022-11-15T11:24:15.616Z,62.26
2022-11-15T11:26:57.121Z,63.23
2022-11-15T11:29:40.959Z,64.77
2022-11-15T11:32:30.487Z,66.44
2022-11-15T11:35:07.939Z,64.92
2022-11-15T11:37:41.979Z,65.50
2022-11-15T11:40:22.748Z,64.59
2022-11-15T11:43:00.363Z,63.71
2022-11-15T11:45:59.558Z,58.49
2022-11-15T11:48:42.735Z,53.59
2022-11-15T11:51:18.576Z,51.59
2022-11-15T11:53:55.200Z,50.28
2022-11-15T11:56:30.477Z,55.75
2022-11-15T11:59:08.531Z,52.06
2022-11-15T12:01:43.569Z,50.64
2022-11-15T12:04:21.155Z,53.59
2022-11-15T12:06:54.213Z,49.57
2022-11-15T12:09:26.353Z,46.14
2022-11-15T12:12:00.442Z,49.36
2022-11-15T12:14:37.604Z,48.89
2022-11-15T12:17:05.817Z,45.36
2022-11-15T12:19:34.062Z,46.34
2022-11-15T12:22:07.316Z,44.09
2022-11-15T12:24:41.698Z,44.24
2022-11-15T12:27:35.606Z,41.71
2022-11-15T12:30:12.494Z,43.42
2022-11-15T12:32:52.971Z,42.16
2022-11-15T12:35:28.719Z,38.34
2022-11-15T12:37:58.459Z,39.83
2022-11-15T12:40:31.973Z,45.13
2022-11-15T12:43:33.172Z,39.05
2022-11-15T12:46:07.447Z,37.40
2022-11-15T12:48:54.107Z,35.68
2022-11-15T12:51:24.258Z,36.15
2022-11-15T12:53:52.419Z,39.13
2022-11-15T12:56:25.219Z,41.02
2022-11-15T12:58:59.298Z,37.99
2022-11-15T13:01:57.881Z,40.89
2022-11-15T13:04:28.964Z,40.04
2022-11-15T13:06:59.986Z,37.77
2022-11-15T13:09:58.366Z,36.63
2022-11-15T13:12:55.077Z,38.28
2022-11-15T13:16:00.683Z,36.84
2022-11-15T13:18:39.363Z,35.87
2022-11-15T13:21:39.593Z,35.03
2022-11-15T13:24:16.258Z,33.20
2022-11-15T13:26:44.678Z,33.52
2022-11-15T13:29:18.579Z,36.56
2022-11-15T13:31:48.204Z,39.26
2022-11-15T13:37:32.123Z,40.59
2022-11-15T13:40:20.959Z,42.67
2022-11-15T13:42:49.066Z,42.33
2022-11-15T13:45:21.103Z,42.15
2022-11-15T13:47:55.491Z,44.78
2022-11-15T13:50:29.032Z,47.47
2022-11-15T13:53:00.823Z,46.16
2022-11-15T13:55:29.984Z,47.22
2022-11-15T13:58:00.818Z,49.10
2022-11-15T14:00:36.854Z,50.29
2022-11-15T14:03:16.416Z,51.18
2022-11-15T14:05:48.181Z,53.01
2022-11-15T14:08:25.821Z,53.32
2022-11-15T14:11:09.603Z,53.95
2022-11-15T14:13:37.918Z,55.83
2022-11-15T14:16:16.726Z,55.57
2022-11-15T14:18:48.937Z,53.39
2022-11-15T14:21:19.864Z,54.72
2022-11-15T14:23:50.121Z,54.57
2022-11-15T14:26:34.153Z,55.62
2022-11-15T14:29:26.779Z,56.07
2022-11-15T14:31:55.782Z,56.63
2022-11-15T14:34:24.102Z,56.94
2022-11-15T14:36:53.601Z,57.84
2022-11-15T14:39:22.439Z,56.93
2022-11-15T14:41:50.388Z,58.42
2022-11-15T14:44:19.557Z,57.59
2022-11-15T14:46:49.109Z,58.44
2022-11-15T14:49:17.298Z,59.65
2022-11-15T14:51:45.643Z,60.39
2022-11-15T14:54:15.321Z,59.66
2022-11-15T14:56:43.688Z,60.57
2022-11-15T14:59:11.770Z,61.23
2022-11-15T15:01:40.521Z,60.82
2022-11-15T15:04:08.923Z,61.03
2022-11-15T15:06:37.076Z,61.81
2022-11-15T15:09:06.467Z,63.12
2022-11-15T15:11:35.945Z,65.72
2022-11-15T15:14:04.120Z,67.93
2022-11-15T15:16:32.308Z,68.92
2022-11-15T15:19:00.427Z,69.46
2022-11-15T15:21:36.507Z,69.16
2022-11-15T15:24:05.799Z,69.69
2022-11-15T15:26:37.486Z,69.89
2022-11-15T15:29:05.834Z,70.07
2022-11-15T15:31:34.779Z,70.76
2022-11-15T15:34:03.553Z,71.23
2022-11-15T15:36:31.691Z,71.49
2022-11-15T15:38:59.870Z,72.36
2022-11-15T15:41:28.272Z,73.41
2022-11-15T15:43:57.728Z,74.00
2022-11-15T15:46:26.677Z,74.64
2022-11-15T15:48:55.105Z,75.31
2022-11-15T15:51:23.249Z,75.58
2022-11-15T15:53:52.525Z,76.76
2022-11-15T15:56:20.732Z,76.71
2022-11-15T15:58:48.753Z,77.37
2022-11-15T16:01:18.293Z,77.83
2022-11-15T16:03:46.498Z,77.89
2022-11-15T16:06:37.548Z,78.24
2022-11-15T16:09:15.612Z,78.59
2022-11-15T16:11:45.891Z,78.10
2022-11-15T16:14:14.360Z,78.22
2022-11-15T16:16:44.277Z,78.40
2022-11-15T16:19:13.907Z,78.57
2022-11-15T16:21:42.380Z,78.33
2022-11-15T16:24:10.816Z,77.95
2022-11-15T16:26:40.124Z,78.13
2022-11-15T16:29:10.285Z,78.32
2022-11-15T16:31:38.382Z,78.96
2022-11-15T16:34:08.096Z,79.12
2022-11-15T16:36:37.216Z,79.36
2022-11-15T16:39:05.958Z,79.46
2022-11-15T16:41:34.449Z,79.43
2022-11-15T16:44:02.579Z,78.95
2022-11-15T16:46:30.986Z,79.54
2022-11-15T16:48:59.348Z,79.71
2022-11-15T16:51:28.812Z,80.24
2022-11-15T16:53:57.333Z,80.21
2022-11-15T16:56:27.327Z,80.67
2022-11-15T16:58:55.743Z,81.06
2022-11-15T17:01:25.498Z,81.15
2022-11-15T17:03:54.245Z,81.51
2022-11-15T17:06:26.246Z,81.71
2022-11-15T17:08:56.709Z,81.68
2022-11-15T17:11:24.724Z,81.80
2022-11-15T17:13:53.174Z,82.14
2022-11-15T17:16:21.249Z,82.18
2022-11-15T17:18:52.805Z,82.48
2022-11-15T17:21:22.638Z,82.64
2022-11-15T17:23:50.669Z,82.57
2022-11-15T17:26:39.375Z,82.67
2022-11-15T17:29:08.867Z,82.60
2022-11-15T17:31:37.607Z,82.31
2022-11-15T17:34:07.562Z,82.53
2022-11-15T17:36:36.226Z,82.88
2022-11-15T17:39:04.859Z,82.80
2022-11-15T17:41:34.351Z,82.93
2022-11-15T17:44:03.657Z,83.17
2022-11-15T17:46:32.255Z,83.08
2022-11-15T17:49:00.437Z,83.06
2022-11-15T17:51:28.475Z,83.11
2022-11-15T17:53:57.309Z,83.39
2022-11-15T17:56:27.381Z,83.23
2022-11-15T17:58:58.761Z,83.29
2022-11-15T18:01:28.944Z,83.48
2022-11-15T18:04:00.523Z,83.49
2022-11-15T18:06:30.524Z,83.38
2022-11-15T18:08:58.916Z,83.28
2022-11-15T18:11:28.950Z,83.09
2022-11-15T18:14:00.410Z,82.84
2022-11-15T18:16:30.976Z,83.04
2022-11-15T18:18:59.983Z,83.27
2022-11-15T18:21:30.232Z,82.78
2022-11-15T18:24:00.658Z,82.84
2022-11-15T18:26:30.569Z,82.96
2022-11-15T18:29:05.337Z,82.89
2022-11-15T18:31:33.678Z,82.89
2022-11-15T18:34:02.060Z,83.01
2022-11-15T18:36:32.016Z,82.92
2022-11-15T18:39:02.482Z,82.87
2022-11-15T18:41:31.714Z,83.04
2022-11-15T18:44:02.789Z,83.06
2022-11-15T18:46:34.659Z,83.04
2022-11-15T18:49:04.119Z,82.98
2022-11-15T18:51:32.962Z,83.38
2022-11-15T18:54:02.611Z,82.95
2022-11-15T18:56:32.822Z,82.73
2022-11-15T18:59:05.096Z,82.55
2022-11-15T19:01:35.011Z,82.81
2022-11-15T19:04:07.235Z,82.49
2022-11-15T19:06:39.397Z,82.40
2022-11-15T19:09:08.811Z,82.47
2022-11-15T19:11:39.552Z,82.17
2022-11-15T19:14:10.931Z,81.83
2022-11-15T19:16:41.230Z,82.08
2022-11-15T19:19:12.573Z,82.16
2022-11-15T19:21:40.932Z,82.21
2022-11-15T19:24:10.432Z,82.21
2022-11-15T19:26:38.836Z,81.88
2022-11-15T19:29:11.330Z,81.46
2022-11-15T19:31:39.754Z,81.57
2022-11-15T19:34:08.808Z,81.93
2022-11-15T19:36:39.906Z,82.08
2022-11-15T19:39:10.169Z,82.26
2022-11-15T19:41:42.258Z,82.12
2022-11-15T19:44:12.939Z,82.00
2022-11-15T19:46:41.977Z,82.10
2022-11-15T19:49:11.003Z,82.15
2022-11-15T19:51:42.385Z,82.08
2022-11-15T19:54:10.998Z,82.01
2022-11-15T19:56:40.427Z,82.14
2022-11-15T19:59:08.940Z,82.48
2022-11-15T20:01:39.492Z,82.68
2022-11-15T20:04:10.145Z,82.30
2022-11-15T20:06:40.142Z,82.56
2022-11-15T20:09:08.487Z,82.46
2022-11-15T20:11:38.178Z,82.55
2022-11-15T20:14:09.014Z,82.63
2022-11-15T20:16:38.829Z,82.87
2022-11-15T20:19:07.323Z,82.98
2022-11-15T20:21:36.184Z,83.10
2022-11-15T20:24:04.511Z,83.04
2022-11-15T20:26:32.675Z,83.20
2022-11-15T20:29:03.173Z,83.08
2022-11-15T20:31:31.885Z,83.31
2022-11-15T20:34:01.583Z,83.40
2022-11-15T20:36:29.748Z,83.36
2022-11-15T20:38:59.504Z,83.32
2022-11-15T20:41:28.559Z,83.36
2022-11-15T20:43:56.951Z,83.29
2022-11-15T20:46:25.272Z,83.39
2022-11-15T20:48:53.308Z,83.52
2022-11-15T20:51:22.903Z,83.58
2022-11-15T20:53:51.391Z,83.58
2022-11-15T20:56:23.746Z,83.69
2022-11-15T20:58:54.803Z,83.70
2022-11-15T21:01:24.763Z,83.69
2022-11-15T21:03:55.162Z,83.78
2022-11-15T21:06:26.371Z,83.83
2022-11-15T21:09:12.853Z,84.01
2022-11-15T21:11:59.137Z,83.62
2022-11-15T21:14:27.249Z,83.61
2022-11-15T21:16:55.324Z,83.03
2022-11-15T21:19:28.038Z,82.79
2022-11-15T21:22:01.109Z,83.38
2022-11-15T21:24:29.197Z,84.07
2022-11-15T21:26:57.444Z,84.43
2022-11-15T21:29:25.685Z,84.95
2022-11-15T21:31:53.841Z,84.93
2022-11-15T21:34:22.357Z,85.00
2022-11-15T21:36:50.353Z,85.27
2022-11-15T21:39:19.689Z,85.59
2022-11-15T21:41:47.698Z,85.95
2022-11-15T21:44:16.014Z,86.15
2022-11-15T21:46:44.131Z,86.14
2022-11-15T21:49:12.379Z,86.55
2022-11-15T21:51:40.425Z,86.94
2022-11-15T21:54:08.945Z,87.22
2022-11-15T21:56:39.187Z,87.35
2022-11-15T21:59:07.197Z,87.57
2022-11-15T22:01:52.624Z,87.76
2022-11-15T22:04:21.484Z,87.63
2022-11-15T22:06:49.563Z,87.78
2022-11-15T22:09:17.673Z,87.59
2022-11-15T22:11:47.112Z,87.64
2022-11-15T22:14:15.502Z,87.57
2022-11-15T22:16:43.507Z,87.61
2022-11-15T22:19:11.539Z,87.57
2022-11-15T22:21:40.729Z,87.50
2022-11-15T22:24:09.352Z,87.41
2022-11-15T22:26:37.467Z,87.46
2022-11-15T22:29:06.911Z,87.30
2022-11-15T22:31:34.984Z,87.01
2022-11-15T22:34:04.782Z,87.20
2022-11-15T22:36:52.286Z,86.97
2022-11-15T22:39:21.028Z,85.97
2022-11-15T22:41:49.049Z,85.64
2022-11-15T22:44:18.437Z,85.38
2022-11-15T22:46:46.487Z,85.89
2022-11-15T22:49:14.540Z,85.71
2022-11-15T22:51:43.037Z,85.87
2022-11-15T22:54:11.119Z,85.92
2022-11-15T22:56:39.159Z,86.21
2022-11-15T22:59:07.155Z,86.14
2022-11-15T23:01:36.847Z,85.91
2022-11-15T23:04:05.014Z,85.76
2022-11-15T23:06:33.159Z,85.76
2022-11-15T23:09:01.288Z,85.72
2022-11-15T23:11:46.800Z,85.79
2022-11-15T23:14:14.854Z,85.72
2022-11-15T23:16:44.418Z,85.70
2022-11-15T23:19:13.443Z,85.15
2022-11-15T23:22:00.966Z,83.63
2022-11-15T23:24:29.850Z,83.36
2022-11-15T23:27:00.173Z,83.82
2022-11-15T23:29:29.352Z,83.91
2022-11-15T23:32:16.490Z,84.23
2022-11-15T23:34:46.144Z,84.83
2022-11-15T23:37:15.804Z,85.12
2022-11-15T23:39:43.958Z,85.29
2022-11-15T23:42:20.354Z,84.87
2022-11-15T23:44:50.615Z,84.03
2022-11-15T23:47:20.894Z,83.74
2022-11-15T23:49:48.938Z,83.62
2022-11-15T23:52:17.410Z,83.73
2022-11-15T23:54:45.915Z,83.33
2022-11-15T23:57:14.049Z,82.60
2022-11-15T23:59:44.058Z,82.06
